Time;durP1;ratioP1;P1;durP2;ratioP2;P2;SDS_P1;SDS_P2;PMS_P1;PMS_P2;Temp;Humidity;BMP_temperature;BMP_pressure;BME280_temperature;BME280_humidity;BME280_pressure;Samples;Min_cycle;Max_cycle;Signal;HPM_P1;HPM_P2
2022/11/10 00:01:47;;;;;;;11.00;4.10;;;;;;;-148.88;94.52;76004.72;5053300;28;20479;-73
2022/11/10 00:04:13;;;;;;;10.13;4.15;;;;;;;-148.88;94.28;76004.72;5054588;28;20383;-72
2022/11/10 00:06:39;;;;;;;13.77;4.35;;;;;;;-148.88;94.53;76016.91;5054145;28;20047;-73
2022/11/10 00:09:05;;;;;;;14.25;5.45;;;;;;;-148.88;95.24;76025.03;5054485;28;20036;-72
2022/11/10 00:11:31;;;;;;;13.27;5.43;;;;;;;-148.88;95.42;76033.16;5053060;28;20024;-73
2022/11/10 00:17:01;;;;;;;12.80;5.05;;;;;;;-148.88;95.79;76049.41;5057515;28;20079;-85
2022/11/10 00:19:27;;;;;;;10.13;3.20;;;;;;;-148.88;95.82;76053.47;5057071;28;20017;-85
2022/11/10 00:21:53;;;;;;;15.88;5.07;;;;;;;-148.88;96.89;76065.66;5074444;28;20430;-85
2022/11/10 00:24:19;;;;;;;12.65;5.05;;;;;;;-148.88;95.64;76069.72;5058631;28;20013;-85
2022/11/10 00:26:45;;;;;;;12.30;5.05;;;;;;;-148.88;96.43;76083.94;5061051;28;20033;-84
2022/11/10 00:29:10;;;;;;;10.45;5.18;;;;;;;-148.88;96.77;76077.84;5059253;28;20017;-83
2022/11/10 00:31:40;;;;;;;12.73;4.85;;;;;;;-148.88;97.19;76085.97;5059276;28;20025;-86
2022/11/10 00:34:11;;;;;;;11.45;4.90;;;;;;;-148.88;97.46;76098.16;5057976;28;20050;-85
2022/11/10 00:36:37;;;;;;;15.68;5.75;;;;;;;-148.88;98.31;76106.28;5058498;28;20029;-85
2022/11/10 00:39:02;;;;;;;14.18;4.82;;;;;;;-148.88;97.82;76106.28;5058653;28;20031;-85
2022/11/10 00:41:31;;;;;;;14.25;5.45;;;;;;;-148.88;97.77;76102.22;5060931;28;20084;-85
2022/11/10 00:43:56;;;;;;;16.65;6.03;;;;;;;-148.88;97.90;76118.47;5061597;28;20013;-87
2022/11/10 00:46:21;;;;;;;11.43;5.43;;;;;;;-148.88;98.64;76122.56;5060344;28;20372;-85
2022/11/10 00:48:47;;;;;;;14.77;5.00;;;;;;;-148.88;98.41;76110.34;5060688;28;20124;-85
2022/11/10 00:51:25;;;;;;;15.90;5.65;;;;;;;-148.88;98.11;76126.59;5058364;28;20483;-85
2022/11/10 00:53:51;;;;;;;14.18;5.35;;;;;;;-148.88;99.10;76146.94;5057149;28;20446;-85
2022/11/10 00:56:17;;;;;;;16.48;6.85;;;;;;;-148.88;99.51;76146.94;5061686;28;20029;-86
2022/11/10 00:58:42;;;;;;;14.02;6.25;;;;;;;-148.88;99.76;76161.16;5061720;28;20029;-86
2022/11/10 01:01:09;;;;;;;12.82;6.40;;;;;;;-148.88;100.00;76171.31;5060149;28;20037;-86
2022/11/10 01:03:34;;;;;;;14.65;7.03;;;;;;;-148.88;100.00;76171.31;5059401;28;20033;-85
2022/11/10 01:06:08;;;;;;;17.80;7.13;;;;;;;-148.88;100.00;76163.19;5057114;28;20117;-85
2022/11/10 01:08:38;;;;;;;14.80;4.65;;;;;;;-148.88;100.00;76167.25;5059961;28;20035;-85
2022/11/10 01:11:11;;;;;;;15.57;5.05;;;;;;;-148.88;100.00;76167.25;5058079;28;20033;-85
2022/11/10 01:13:36;;;;;;;11.57;7.10;;;;;;;-148.88;100.00;76161.16;5060342;28;20071;-85
2022/11/10 01:16:15;;;;;;;15.20;7.15;;;;;;;-148.88;99.68;76165.22;5058687;28;20071;-85
2022/11/10 01:18:44;;;;;;;14.48;6.80;;;;;;;-148.88;100.00;76167.25;5059809;28;20490;-85
2022/11/10 01:21:10;;;;;;;16.23;6.78;;;;;;;-148.88;100.00;76181.47;5058464;28;20040;-85
2022/11/10 01:23:35;;;;;;;17.30;8.52;;;;;;;-148.88;100.00;76187.56;5060259;28;20017;-84
2022/11/10 01:26:04;;;;;;;11.93;4.38;;;;;;;-148.88;100.00;76187.56;5059468;28;20512;-85
2022/11/10 01:28:34;;;;;;;17.70;7.05;;;;;;;-148.88;100.00;76195.69;5054928;28;20039;-85
2022/11/10 01:31:11;;;;;;;12.25;4.40;;;;;;;-148.88;100.00;76195.69;5055961;28;20037;-84
2022/11/10 01:33:36;;;;;;;16.05;7.13;;;;;;;-148.88;100.00;76193.66;5057584;28;20024;-85
2022/11/10 01:36:03;;;;;;;16.50;7.43;;;;;;;-148.88;100.00;76211.94;5057856;28;20029;-85
2022/11/10 01:38:31;;;;;;;15.65;7.90;;;;;;;-148.88;100.00;76207.88;5059578;28;20033;-85
2022/11/10 01:40:57;;;;;;;12.25;4.85;;;;;;;-148.88;100.00;76226.16;5059878;28;20029;-86
2022/11/10 01:43:23;;;;;;;23.10;7.30;;;;;;;-148.88;100.00;76236.31;5057780;28;20028;-85
2022/11/10 01:45:59;;;;;;;13.77;4.30;;;;;;;-148.88;100.00;76240.38;5059043;28;20025;-85
2022/11/10 01:48:28;;;;;;;17.35;4.38;;;;;;;-148.88;100.00;76236.31;5058586;28;20029;-85
2022/11/10 01:50:54;;;;;;;17.80;6.90;;;;;;;-148.88;100.00;76240.38;5057274;28;20074;-86
2022/11/10 01:53:24;;;;;;;14.85;6.78;;;;;;;-148.88;100.00;76242.41;5057936;28;20031;-85
2022/11/10 01:55:50;;;;;;;16.65;7.03;;;;;;;-148.88;100.00;76236.31;5058813;28;20036;-83
2022/11/10 01:58:18;;;;;;;14.73;7.18;;;;;;;-148.88;100.00;76238.34;5059430;28;20025;-85
2022/11/10 02:00:44;;;;;;;10.57;4.57;;;;;;;-148.88;100.00;76248.50;5059824;28;20090;-85
2022/11/10 02:03:18;;;;;;;11.90;4.95;;;;;;;-148.88;100.00;76248.50;5055835;28;20044;-85
2022/11/10 02:05:43;;;;;;;17.52;6.40;;;;;;;-148.88;100.00;76248.50;5053980;28;20120;-84
2022/11/10 02:08:13;;;;;;;15.45;5.72;;;;;;;-148.88;100.00;76248.50;5055680;28;20056;-86
2022/11/10 02:10:38;;;;;;;19.27;6.20;;;;;;;-148.88;100.00;76248.50;5055724;28;20087;-86
2022/11/10 02:13:04;;;;;;;17.15;9.27;;;;;;;-148.88;100.00;76244.44;5055219;28;20033;-87
2022/11/10 02:15:29;;;;;;;17.23;8.45;;;;;;;-148.88;100.00;76258.66;5056991;28;20509;-85
2022/11/10 02:17:54;;;;;;;14.65;5.78;;;;;;;-148.88;100.00;76246.47;5055566;28;20086;-85
2022/11/10 02:20:20;;;;;;;16.40;8.05;;;;;;;-148.88;100.00;76246.47;5056385;28;20387;-86
2022/11/10 02:22:46;;;;;;;16.35;6.22;;;;;;;-148.88;100.00;76248.50;5057033;28;20391;-86
2022/11/10 02:25:16;;;;;;;17.52;5.63;;;;;;;-148.88;100.00;76248.50;5056184;28;20056;-83
2022/11/10 02:27:41;;;;;;;16.70;6.65;;;;;;;-148.88;100.00;76248.50;5054717;28;20025;-86
2022/11/10 02:30:10;;;;;;;15.50;5.70;;;;;;;-148.88;100.00;76248.50;5057540;28;20031;-85
2022/11/10 02:32:35;;;;;;;18.40;9.27;;;;;;;-148.88;100.00;76240.38;5060581;28;20049;-86
2022/11/10 02:35:01;;;;;;;15.52;5.80;;;;;;;-148.88;100.00;76236.31;5058277;28;20450;-85
2022/11/10 02:37:26;;;;;;;16.58;9.30;;;;;;;-148.88;100.00;76238.34;5062095;28;20035;-85
2022/11/10 02:39:52;;;;;;;24.50;10.13;;;;;;;-148.88;100.00;76244.44;5059166;28;20025;-85
2022/11/10 02:42:17;;;;;;;18.90;10.13;;;;;;;-148.88;100.00;76246.47;5061574;28;20052;-86
2022/11/10 02:44:42;;;;;;;19.08;9.55;;;;;;;-148.88;100.00;76248.50;5063932;28;20021;-84
2022/11/10 02:47:08;;;;;;;29.35;9.95;;;;;;;-148.88;100.00;76248.50;5064163;28;20037;-86
2022/11/10 02:49:33;;;;;;;23.65;10.23;;;;;;;-148.88;100.00;76250.53;5064922;28;20032;-85
2022/11/10 02:51:58;;;;;;;19.88;6.95;;;;;;;-148.88;100.00;76256.63;5063205;28;20032;-86
2022/11/10 02:54:24;;;;;;;15.73;7.18;;;;;;;-148.88;100.00;76256.63;5063688;28;20043;-87
2022/11/10 02:56:49;;;;;;;23.35;10.23;;;;;;;-148.88;100.00;76270.84;5064134;28;20028;-84
2022/11/10 02:59:14;;;;;;;18.67;9.93;;;;;;;-148.88;100.00;76260.69;5066739;28;20028;-85
2022/11/10 03:01:40;;;;;;;20.17;9.98;;;;;;;-148.88;100.00;76272.88;5062915;28;20044;-85
2022/11/10 03:04:05;;;;;;;22.05;10.15;;;;;;;-148.88;100.00;76274.91;5064238;28;20051;-86
2022/11/10 03:06:31;;;;;;;22.60;10.20;;;;;;;-148.88;100.00;76293.19;5064846;28;20052;-86
2022/11/10 03:08:57;;;;;;;19.45;6.25;;;;;;;-148.88;100.00;76287.09;5064497;28;20545;-85
2022/11/10 03:11:22;;;;;;;13.52;7.40;;;;;;;-148.88;100.00;76293.19;5063439;28;20033;-86
2022/11/10 03:13:47;;;;;;;15.23;6.93;;;;;;;-148.88;100.00;76293.19;5061035;28;20029;-84
2022/11/10 03:16:13;;;;;;;17.80;6.22;;;;;;;-148.88;100.00;76291.16;5062053;28;20032;-85
2022/11/10 03:18:38;;;;;;;19.63;9.93;;;;;;;-148.88;100.00;76295.22;5062613;28;20395;-85
2022/11/10 03:21:04;;;;;;;18.92;9.82;;;;;;;-148.88;100.00;76293.19;5062606;28;20021;-85
2022/11/10 03:23:29;;;;;;;22.25;10.60;;;;;;;-148.88;100.00;76301.31;5062416;28;20024;-86
2022/11/10 03:25:54;;;;;;;20.95;10.27;;;;;;;-148.88;100.00;76305.38;5062897;28;20035;-86
2022/11/10 03:28:19;;;;;;;18.52;6.65;;;;;;;-148.88;100.00;76301.31;5064154;28;20024;-86
2022/11/10 03:30:45;;;;;;;22.27;11.05;;;;;;;-148.88;100.00;76297.25;5063391;28;20055;-84
2022/11/10 03:33:10;;;;;;;21.23;7.30;;;;;;;-148.88;100.00;76299.28;5062836;28;20470;-85
2022/11/10 03:35:35;;;;;;;17.85;7.45;;;;;;;-148.88;100.00;76301.31;5065557;28;20029;-85
2022/11/10 03:38:01;;;;;;;17.92;6.47;;;;;;;-148.88;100.00;76309.44;5064633;28;20060;-86
2022/11/10 03:40:26;;;;;;;14.98;7.10;;;;;;;-148.88;100.00;76307.41;5062684;28;20032;-86
2022/11/10 03:42:52;;;;;;;22.23;9.63;;;;;;;-148.88;100.00;76301.31;5062218;28;20024;-85
2022/11/10 03:45:17;;;;;;;21.40;10.98;;;;;;;-148.88;100.00;76305.38;5064685;28;20495;-86
2022/11/10 03:47:47;;;;;;;18.80;11.02;;;;;;;-148.88;100.00;76309.44;5062947;28;20431;-86
2022/11/10 03:50:14;;;;;;;17.30;8.13;;;;;;;-148.88;100.00;76309.44;5061156;28;20474;-85
2022/11/10 03:52:42;;;;;;;21.95;12.98;;;;;;;-148.88;100.00;76321.63;5062242;28;20021;-86
2022/11/10 03:55:10;;;;;;;29.45;12.85;;;;;;;-148.88;100.00;76329.75;5062431;28;20074;-84
2022/11/10 03:57:35;;;;;;;19.25;14.25;;;;;;;-148.88;100.00;76309.44;5062190;28;20048;-83
2022/11/10 04:00:01;;;;;;;23.65;9.05;;;;;;;-148.88;100.00;76313.50;5060885;28;20032;-85
2022/11/10 04:02:26;;;;;;;24.25;13.00;;;;;;;-148.88;100.00;76319.59;5061240;28;20144;-85
2022/11/10 04:10:19;;;;;;;17.27;7.63;;;;;;;-148.88;100.00;76325.69;5064448;28;19920;-86
2022/11/10 04:15:40;;;;;;;22.58;8.38;;;;;;;-148.88;100.00;76321.63;5061585;28;20039;-85
2022/11/10 04:18:25;;;;;;;23.45;12.48;;;;;;;-148.88;100.00;76325.69;5063333;28;20031;-88
2022/11/10 04:20:56;;;;;;;22.45;8.30;;;;;;;-148.88;100.00;76329.75;5061017;28;20017;-86
2022/11/10 04:23:26;;;;;;;21.73;8.70;;;;;;;-148.88;100.00;76329.75;5065591;28;20042;-84
2022/11/10 04:26:28;;;;;;;20.83;9.23;;;;;;;-148.88;100.00;76333.81;5060900;28;20537;-85
2022/11/10 04:28:56;;;;;;;25.38;14.32;;;;;;;-148.88;100.00;76329.75;5059651;28;20028;-85
2022/11/10 04:31:23;;;;;;;26.25;14.65;;;;;;;-148.88;100.00;76331.78;5057928;28;20120;-85
2022/11/10 04:33:49;;;;;;;28.17;15.40;;;;;;;-148.88;100.00;76346.00;5059069;28;20048;-85
2022/11/10 04:36:18;;;;;;;22.63;14.68;;;;;;;-148.88;100.00;76333.81;5060787;28;20040;-85
2022/11/10 04:38:55;;;;;;;27.98;15.73;;;;;;;-148.88;100.00;76341.94;5064150;28;20371;-83
2022/11/10 04:41:22;;;;;;;23.63;14.00;;;;;;;-148.88;100.00;76341.94;5064888;28;20090;-86
2022/11/10 04:43:47;;;;;;;24.17;13.55;;;;;;;-148.88;100.00;76350.06;5065939;28;20024;-84
2022/11/10 04:46:25;;;;;;;26.40;13.90;;;;;;;-148.88;100.00;76358.19;5065306;28;20028;-86
2022/11/10 04:48:51;;;;;;;21.10;9.23;;;;;;;-148.88;100.00;76362.25;5065397;28;20020;-85
2022/11/10 04:51:18;;;;;;;21.10;9.88;;;;;;;-148.88;100.00;76362.25;5066293;28;20365;-83
2022/11/10 04:53:44;;;;;;;21.42;9.70;;;;;;;-148.88;100.00;76374.44;5060561;28;20059;-82
2022/11/10 04:56:21;;;;;;;18.73;9.07;;;;;;;-148.88;100.00;76378.50;5063521;28;20028;-83
2022/11/10 04:58:46;;;;;;;21.60;13.98;;;;;;;-148.88;100.00;76378.50;5060452;28;20020;-81
2022/11/10 05:01:14;;;;;;;17.00;9.70;;;;;;;-148.88;100.00;76376.47;5057000;28;20391;-81
2022/11/10 05:03:39;;;;;;;17.30;9.38;;;;;;;-148.88;100.00;76394.75;5057611;28;20082;-81
2022/11/10 05:06:05;;;;;;;20.85;10.13;;;;;;;-148.88;100.00;76398.81;5059715;28;20394;-84
2022/11/10 05:08:31;;;;;;;24.75;14.68;;;;;;;-148.88;100.00;76400.84;5060076;28;20025;-82
2022/11/10 05:10:56;;;;;;;27.58;15.35;;;;;;;-148.88;100.00;76398.81;5059812;28;20383;-84
2022/11/10 05:13:21;;;;;;;24.48;14.75;;;;;;;-148.88;100.00;76404.91;5060170;28;20479;-83
2022/11/10 05:15:47;;;;;;;24.88;15.05;;;;;;;-148.88;100.00;76402.88;5061994;28;20388;-82
2022/11/10 05:18:12;;;;;;;18.70;10.80;;;;;;;-148.88;100.00;76419.16;5062563;28;20458;-84
2022/11/10 05:20:37;;;;;;;20.10;10.68;;;;;;;-148.88;100.00;76419.16;5061907;28;20451;-84
2022/11/10 05:25:47;;;;;;;24.92;15.63;;;;;;;-148.88;100.00;76411.00;5062381;28;20078;-85
2022/11/10 05:28:12;;;;;;;22.58;10.30;;;;;;;-148.88;100.00;76419.16;5062601;28;20112;-83
2022/11/10 05:30:38;;;;;;;26.45;15.13;;;;;;;-148.88;100.00;76415.06;5061266;28;20034;-85
2022/11/10 05:33:13;;;;;;;21.85;9.55;;;;;;;-148.88;100.00;76427.28;5062716;28;20017;-85
2022/11/10 05:35:39;;;;;;;19.90;10.55;;;;;;;-148.88;100.00;76431.34;5054743;28;20104;-87
2022/11/10 05:38:04;;;;;;;23.83;9.65;;;;;;;-148.88;100.00;76421.19;5053254;28;20020;-85
2022/11/10 05:40:30;;;;;;;23.92;9.40;;;;;;;-148.88;100.00;76423.19;5052879;28;20392;-88
2022/11/10 05:42:56;;;;;;;23.20;13.32;;;;;;;-148.88;100.00;76423.19;5052742;28;20406;-87
2022/11/10 05:45:24;;;;;;;27.90;13.82;;;;;;;-148.88;100.00;76419.16;5053252;28;20025;-86
2022/11/10 05:47:50;;;;;;;22.60;9.73;;;;;;;-148.88;100.00;76421.19;5054695;28;20048;-86
2022/11/10 05:50:17;;;;;;;27.75;13.10;;;;;;;-148.88;100.00;76417.09;5053570;28;20029;-86
2022/11/10 05:52:45;;;;;;;25.63;13.13;;;;;;;-148.88;100.00;76421.19;5055109;28;20021;-88
2022/11/10 05:55:14;;;;;;;26.98;14.52;;;;;;;-148.88;100.00;76431.34;5054528;28;20039;-87
2022/11/10 05:57:49;;;;;;;31.85;15.20;;;;;;;-148.88;100.00;76431.34;5052780;28;20021;-91
2022/11/10 06:00:22;;;;;;;28.95;14.63;;;;;;;-148.88;100.00;76419.16;5052968;28;20452;-91
2022/11/10 06:03:04;;;;;;;27.88;15.82;;;;;;;-148.88;100.00;76415.06;5052861;28;20083;-90
2022/11/10 06:05:35;;;;;;;29.15;15.35;;;;;;;-148.88;100.00;76439.47;5051832;28;20029;-91
2022/11/10 06:08:02;;;;;;;26.85;14.32;;;;;;;-148.88;100.00;76437.44;5054669;28;20382;-91
2022/11/10 06:10:28;;;;;;;33.00;14.95;;;;;;;-148.88;100.00;76431.34;5053207;28;20078;-87
2022/11/10 06:12:54;;;;;;;21.35;8.90;;;;;;;-148.88;100.00;76431.34;5053306;28;20033;-86
2022/11/10 06:15:39;;;;;;;32.85;15.52;;;;;;;-148.88;100.00;76443.53;5052549;28;20077;-87
2022/11/10 06:18:04;;;;;;;28.42;9.38;;;;;;;-148.88;100.00;76439.47;5053001;28;20112;-86
2022/11/10 06:20:46;;;;;;;22.02;13.73;;;;;;;-148.88;100.00;76437.44;5051992;28;20061;-87
2022/11/10 06:23:14;;;;;;;26.60;9.07;;;;;;;-148.88;100.00;76437.44;5053092;28;20017;-85
2022/11/10 06:25:40;;;;;;;23.38;9.80;;;;;;;-148.88;100.00;76443.53;5052499;28;20131;-85
2022/11/10 06:28:07;;;;;;;29.55;15.20;;;;;;;-148.88;100.00;76443.53;5051914;28;20027;-86
2022/11/10 06:30:39;;;;;;;28.13;10.35;;;;;;;-148.88;100.00;76455.72;5052974;28;20044;-87
2022/11/10 06:33:14;;;;;;;27.45;10.15;;;;;;;-148.88;100.00;76457.75;5052259;28;20541;-86
2022/11/10 06:35:51;;;;;;;24.90;10.23;;;;;;;-148.88;100.00;76467.91;5051662;28;20191;-86
2022/11/10 06:38:17;;;;;;;25.17;15.32;;;;;;;-148.88;100.00;76471.97;5052642;28;20386;-87
2022/11/10 06:40:45;;;;;;;30.80;15.98;;;;;;;-148.88;100.00;76480.09;5052013;28;20025;-86
2022/11/10 06:43:11;;;;;;;21.88;10.35;;;;;;;-148.88;100.00;76488.22;5052233;28;20027;-86
2022/11/10 06:45:36;;;;;;;30.60;10.48;;;;;;;-148.88;100.00;76494.31;5052240;28;20040;-86
2022/11/10 06:48:05;;;;;;;26.27;15.73;;;;;;;-148.88;100.00;76496.34;5052346;28;20021;-86
2022/11/10 06:50:32;;;;;;;26.17;14.80;;;;;;;-148.88;100.00;76498.38;5051248;28;20037;-87
2022/11/10 06:52:58;;;;;;;25.80;14.60;;;;;;;-148.88;100.00;76504.47;5050912;28;20033;-88
2022/11/10 06:55:24;;;;;;;19.65;8.55;;;;;;;-148.88;100.00;76500.41;5052366;28;20024;-87
2022/11/10 06:57:50;;;;;;;19.90;10.68;;;;;;;-148.88;100.00;76512.59;5051463;28;20031;-86
2022/11/10 07:00:15;;;;;;;21.40;9.10;;;;;;;-148.88;100.00;76508.53;5051554;28;20032;-87
2022/11/10 07:02:41;;;;;;;25.10;13.38;;;;;;;-148.88;100.00;76504.47;5051403;28;20024;-87
2022/11/10 07:05:06;;;;;;;22.83;12.20;;;;;;;-148.88;100.00;76512.59;5051435;28;20032;-87
2022/11/10 07:07:32;;;;;;;20.45;9.02;;;;;;;-148.88;100.00;76504.47;5051765;28;20028;-87
2022/11/10 07:09:57;;;;;;;23.17;12.60;;;;;;;-148.88;100.00;76500.41;5051519;28;20111;-86
2022/11/10 07:12:22;;;;;;;22.63;12.23;;;;;;;-148.88;100.00;76500.41;5051588;28;20398;-87
2022/11/10 07:14:48;;;;;;;25.58;12.63;;;;;;;-148.88;100.00;76504.47;5051460;28;20032;-87
2022/11/10 07:17:13;;;;;;;29.60;10.38;;;;;;;-148.88;100.00;76504.47;5053992;28;20036;-85
2022/11/10 07:19:38;;;;;;;23.30;9.50;;;;;;;-148.88;100.00;76500.41;5055334;28;20021;-88
2022/11/10 07:22:04;;;;;;;22.05;9.25;;;;;;;-148.88;100.00;76498.38;5055079;28;20047;-86
2022/11/10 07:24:29;;;;;;;21.08;8.98;;;;;;;-148.88;100.00;76508.53;5055775;28;20052;-86
2022/11/10 07:26:56;;;;;;;28.27;10.55;;;;;;;-148.88;100.00;76512.59;5054915;28;20031;-86
2022/11/10 07:29:22;;;;;;;24.70;11.20;;;;;;;-148.88;100.00;76508.53;5055016;28;20410;-86
2022/11/10 07:31:47;;;;;;;27.05;15.43;;;;;;;-148.88;100.00;76508.53;5054820;28;20044;-86
2022/11/10 07:34:12;;;;;;;33.58;16.10;;;;;;;-148.88;100.00;76522.75;5055358;28;20017;-88
2022/11/10 07:36:38;;;;;;;28.10;12.45;;;;;;;-148.88;100.00;76520.72;5055195;28;20123;-87
2022/11/10 07:39:03;;;;;;;27.25;12.05;;;;;;;-148.88;100.00;76520.72;5055128;28;20024;-87
2022/11/10 07:41:28;;;;;;;25.90;12.18;;;;;;;-148.88;100.00;76510.56;5054872;28;20056;-86
2022/11/10 07:43:54;;;;;;;29.45;17.85;;;;;;;-148.88;100.00;76516.66;5054805;28;20111;-87
2022/11/10 07:46:19;;;;;;;26.42;11.98;;;;;;;-148.88;100.00;76510.56;5054754;28;20017;-86
2022/11/10 07:48:44;;;;;;;26.30;11.95;;;;;;;-148.88;100.00;76516.66;5054935;28;20328;-87
2022/11/10 07:51:10;;;;;;;29.00;18.50;;;;;;;-148.88;100.00;76516.66;5054417;28;20064;-85
2022/11/10 07:53:35;;;;;;;30.30;19.00;;;;;;;-148.88;100.00;76514.63;5054414;28;20039;-86
2022/11/10 07:56:00;;;;;;;31.38;19.63;;;;;;;-148.88;100.00;76510.56;5054583;28;20115;-88
2022/11/10 07:58:26;;;;;;;24.77;17.15;;;;;;;-148.88;100.00;76512.59;5054427;28;20064;-87
2022/11/10 08:00:51;;;;;;;25.27;12.07;;;;;;;-148.88;100.00;76520.72;5054700;28;20102;-85
2022/11/10 08:03:19;;;;;;;33.35;19.33;;;;;;;-148.88;100.00;76512.59;5054417;28;20053;-84
2022/11/10 08:05:45;;;;;;;30.20;18.90;;;;;;;-148.88;100.00;76526.81;5055553;28;20470;-85
2022/11/10 08:08:16;;;;;;;32.65;19.38;;;;;;;-148.88;100.00;76528.84;5054309;28;20543;-86
2022/11/10 08:10:42;;;;;;;32.50;19.77;;;;;;;-148.88;100.00;76545.09;5054295;28;20056;-86
2022/11/10 08:13:10;;;;;;;29.67;19.30;;;;;;;-148.88;100.00;76545.09;5054485;28;20100;-85
2022/11/10 08:15:36;;;;;;;26.23;12.50;;;;;;;-148.88;100.00;76549.16;5054615;28;20079;-87
2022/11/10 08:18:23;;;;;;;35.70;19.40;;;;;;;-148.88;100.00;76561.34;5054126;28;20021;-88
2022/11/10 08:20:49;;;;;;;22.88;12.10;;;;;;;-148.88;100.00;76561.34;5054258;28;20054;-87
2022/11/10 08:23:15;;;;;;;31.70;18.67;;;;;;;-148.88;100.00;76553.22;5055134;28;20100;-87
2022/11/10 08:25:41;;;;;;;28.48;17.67;;;;;;;-148.88;100.00;76551.19;5055395;28;20037;-85
2022/11/10 08:28:16;;;;;;;37.63;16.85;;;;;;;-148.88;100.00;76541.03;5053578;28;20087;-87
2022/11/10 08:30:56;;;;;;;28.40;17.63;;;;;;;-148.88;100.00;76543.06;5054388;28;20025;-87
2022/11/10 08:33:22;;;;;;;28.63;17.48;;;;;;;-148.88;100.00;76530.88;5053957;28;20025;-85
2022/11/10 08:35:49;;;;;;;32.78;12.25;;;;;;;-148.88;100.00;76524.78;5053620;28;20031;-87
2022/11/10 08:38:22;;;;;;;20.60;9.93;;;;;;;-148.88;100.00;76516.66;5054140;28;20033;-87
2022/11/10 08:40:48;;;;;;;25.23;11.55;;;;;;;-148.88;100.00;76510.56;5054432;28;20123;-87
2022/11/10 08:43:14;;;;;;;24.98;14.43;;;;;;;-148.88;100.00;76512.59;5054791;28;20040;-87
2022/11/10 08:45:41;;;;;;;26.48;10.98;;;;;;;-148.88;100.00;76498.38;5054189;28;20061;-84
2022/11/10 08:48:13;;;;;;;26.42;13.45;;;;;;;-148.88;100.00;76502.44;5054035;28;20479;-86
2022/11/10 08:50:39;;;;;;;29.83;13.30;;;;;;;-148.88;100.00;76500.41;5054144;28;20035;-87
2022/11/10 08:53:13;;;;;;;23.65;14.30;;;;;;;-148.88;100.00;76498.38;5054925;28;20207;-87
2022/11/10 08:55:39;;;;;;;29.08;13.57;;;;;;;-148.88;100.00;76500.41;5053648;28;20479;-86
2022/11/10 08:58:06;;;;;;;25.25;12.55;;;;;;;-148.88;100.00;76508.53;5054598;28;20479;-85
2022/11/10 09:00:32;;;;;;;24.83;11.93;;;;;;;-148.88;100.00;76506.50;5053311;28;20037;-86
2022/11/10 09:03:21;;;;;;;25.25;12.70;;;;;;;-148.88;100.00;76500.41;5053984;28;20574;-86
2022/11/10 09:05:56;;;;;;;20.10;8.65;;;;;;;-148.88;99.98;76492.28;5054644;28;20021;-87
2022/11/10 09:08:24;;;;;;;22.70;12.45;;;;;;;-148.88;99.96;76482.13;5053217;28;20116;-85
2022/11/10 09:10:50;;;;;;;24.20;11.98;;;;;;;-148.88;99.83;76476.03;5053238;28;20081;-86
2022/11/10 09:13:21;;;;;;;22.77;11.13;;;;;;;-148.88;99.76;76465.88;5052814;28;20119;-86
2022/11/10 09:15:46;;;;;;;22.58;10.57;;;;;;;-148.88;99.29;76463.84;5052766;28;20036;-85
2022/11/10 09:18:24;;;;;;;24.20;11.15;;;;;;;-148.88;98.92;76455.72;5053056;28;20021;-87
2022/11/10 09:21:10;;;;;;;23.67;11.35;;;;;;;-148.88;98.78;76457.75;5053672;28;20119;-87
2022/11/10 09:23:36;;;;;;;19.13;10.45;;;;;;;-148.88;98.24;76459.78;5053971;28;20036;-86
2022/11/10 09:26:11;;;;;;;23.17;11.13;;;;;;;-148.88;98.57;76463.84;5052916;28;20021;-87
2022/11/10 09:28:36;;;;;;;21.25;11.07;;;;;;;-148.88;98.27;76447.59;5052704;28;20041;-87
2022/11/10 09:31:19;;;;;;;22.10;10.75;;;;;;;-148.88;98.74;76427.28;5052628;28;20036;-88
2022/11/10 09:33:47;;;;;;;22.42;10.88;;;;;;;-148.88;97.98;76415.06;5052820;28;20057;-88
2022/11/10 09:36:15;;;;;;;16.88;10.32;;;;;;;-148.88;97.32;76394.75;5053659;28;20115;-86
2022/11/10 09:38:48;;;;;;;23.90;10.57;;;;;;;-148.88;97.17;76392.72;5052448;28;20043;-86
2022/11/10 09:41:14;;;;;;;24.35;11.00;;;;;;;-148.88;96.51;76386.63;5053498;28;20025;-86
2022/11/10 09:43:43;;;;;;;24.50;10.57;;;;;;;-148.88;95.83;76400.84;5052488;28;20024;-86
2022/11/10 09:46:41;;;;;;;18.80;9.82;;;;;;;-148.88;96.09;76394.75;5052606;28;20491;-87
2022/11/10 09:52:37;;;;;;;20.85;9.70;;;;;;;-148.88;95.01;76376.47;5053795;28;20087;-86
2022/11/10 09:55:17;;;;;;;17.52;9.30;;;;;;;-148.88;94.99;76364.28;5052474;28;20136;-86
2022/11/10 09:57:43;;;;;;;20.45;8.15;;;;;;;-148.88;94.40;76378.50;5052886;28;20024;-87
2022/11/10 10:00:14;;;;;;;17.55;7.68;;;;;;;-148.88;94.26;76378.50;5052332;28;20507;-86
2022/11/10 10:02:59;;;;;;;16.77;7.00;;;;;;;-148.88;94.29;76356.16;5052090;28;20024;-87
2022/11/10 10:05:31;;;;;;;20.75;6.97;;;;;;;-148.88;92.90;76346.00;5052297;28;20401;-87
2022/11/10 10:08:01;;;;;;;20.90;6.63;;;;;;;-148.88;93.48;76356.16;5052383;28;20025;-85
2022/11/10 10:11:01;;;;;;;19.15;5.85;;;;;;;-148.88;92.29;76350.06;5052585;28;20028;-88
2022/11/10 10:13:50;;;;;;;17.13;5.28;;;;;;;-148.88;93.08;76325.69;5042869;28;20036;-87
2022/11/10 10:16:24;;;;;;;13.60;5.47;;;;;;;-148.88;91.12;76337.88;5053143;28;20040;-90
2022/11/10 10:18:56;;;;;;;11.85;4.50;;;;;;;-148.88;91.40;76317.56;5052263;28;20025;-87
2022/11/10 10:21:37;;;;;;;17.73;4.82;;;;;;;-148.88;91.43;76317.56;5052102;28;20021;-88
2022/11/10 10:24:04;;;;;;;16.23;4.25;;;;;;;-148.88;90.79;76293.19;5052181;28;20027;-87
2022/11/10 10:26:36;;;;;;;13.23;4.20;;;;;;;-148.88;90.82;76272.88;5052038;28;20048;-87
2022/11/10 10:29:08;;;;;;;16.85;4.45;;;;;;;-148.88;89.01;76260.69;5053032;28;20368;-86
2022/11/10 10:31:42;;;;;;;13.57;3.83;;;;;;;-148.88;87.54;76236.31;5054182;28;20032;-86
2022/11/10 10:34:14;;;;;;;13.63;3.92;;;;;;;-148.88;87.67;76218.03;5052209;28;20021;-85
2022/11/10 10:36:40;;;;;;;15.90;3.97;;;;;;;-148.88;87.69;76264.75;5053888;28;20025;-87
2022/11/10 10:39:14;;;;;;;14.35;3.65;;;;;;;-148.88;87.30;76230.22;5061285;28;20124;-85
2022/11/10 10:41:41;;;;;;;16.95;3.75;;;;;;;-148.88;86.47;76203.81;5054242;28;20039;-87
2022/11/10 10:44:16;;;;;;;15.38;3.80;;;;;;;-148.88;85.78;76213.97;5053925;28;20036;-86
2022/11/10 10:47:03;;;;;;;12.95;3.75;;;;;;;-148.88;86.18;76183.50;5054593;28;20021;-85
2022/11/10 10:49:35;;;;;;;16.67;3.40;;;;;;;-148.88;84.15;76167.25;5052604;28;20028;-86
2022/11/10 10:52:27;;;;;;;13.27;3.78;;;;;;;-148.88;84.66;76179.44;5057949;28;20039;-86
2022/11/10 10:55:09;;;;;;;14.85;3.85;;;;;;;-148.88;84.03;76161.16;5058337;28;20021;-86
2022/11/10 10:57:52;;;;;;;12.35;3.80;;;;;;;-148.88;83.15;76163.19;5056985;28;20044;-87
2022/11/10 11:00:28;;;;;;;16.00;3.30;;;;;;;-148.88;83.66;76191.63;5064890;28;20364;-87
2022/11/10 11:03:27;;;;;;;15.18;3.55;;;;;;;-148.88;83.55;76183.50;5055688;28;20262;-87
2022/11/10 11:06:29;;;;;;;16.77;3.90;;;;;;;-148.88;85.18;76195.69;5055762;28;20395;-89
2022/11/10 11:09:05;;;;;;;12.35;2.80;;;;;;;-148.88;85.15;76203.81;5056395;28;20024;-89
2022/11/10 11:11:37;;;;;;;13.20;3.38;;;;;;;-148.88;84.58;76187.56;5055909;28;20094;-87
2022/11/10 11:14:23;;;;;;;10.52;3.20;;;;;;;-148.88;83.80;76189.59;5056018;28;20032;-88
2022/11/10 11:17:10;;;;;;;13.13;3.13;;;;;;;-148.88;85.26;76234.28;5055364;28;20033;-90
2022/11/10 11:19:37;;;;;;;14.05;3.30;;;;;;;-148.88;85.94;76252.56;5055703;28;20029;-90
2022/11/10 11:22:18;;;;;;;12.10;3.30;;;;;;;-148.88;86.52;76281.00;5055330;28;20119;-90
2022/11/10 11:25:23;;;;;;;19.55;4.45;;;;;;;-148.88;87.94;76295.22;5055218;28;20028;-90
2022/11/10 11:27:57;;;;;;;17.63;3.80;;;;;;;-148.88;87.76;76270.84;5055320;28;20029;-89